KHIB/HIB METAR and TAF weather

Enter ICAO airport designator
Station Type Date Time Source
KHIB METAR 2020/09/28 06:53 UTC NOAA

KHIB 280653Z AUTO 32008KT 10SM FEW016 SCT034 OVC047 08/06 A2976 RMK AO2 SLP086 T00830061


Station Type Date Time Source
KHIB Decoded METAR 2020/09/28 06:53 UTC NOAA

CHISHOLM-HIBBING AIRPORT, MN, United States (KHIB) 47-23N 92-50W 412M
Sep 28, 2020 - 02:53 AM EDT / 2020.09.28 0653 UTC
Wind: from the NW (320 degrees) at 9 MPH (8 KT):0
Visibility: 10 mile(s):0
Sky conditions: overcast
Temperature: 46.9 F (8.3 C)
Dew Point: 43.0 F (6.1 C)
Relative Humidity: 86%
Pressure (altimeter): 29.76 in. Hg (1007 hPa)
ob: KHIB 280653Z AUTO 32008KT 10SM FEW016 SCT034 OVC047 08/06 A2976 RMK AO2 SLP086 T00830061
cycle: 7

Station Type Date Time Source
KHIB TAF 2020/09/28 06:27 UTC NOAA

TAF KHIB 280525Z 2806/2906 31008KT P6SM SCT020 BKN060
FM280900 32007KT P6SM BKN025
FM281100 33009KT P6SM BKN018
FM281800 34011KT P6SM VCSH BKN019
FM290000 33010KT P6SM BKN020
AMD NOT SKED 2806/2809

Example: see airport list